createdAt,value
2018-09-26T00:00:02.333Z,3.23
2018-09-26T00:02:33.116Z,3.53
2018-09-26T00:05:01.360Z,2.33
2018-09-26T00:07:30.432Z,4.33
2018-09-26T00:09:59.405Z,5.93
2018-09-26T00:12:28.872Z,1.40
2018-09-26T00:14:58.168Z,2.07
2018-09-26T00:17:33.627Z,2.97
2018-09-26T00:20:02.762Z,2.73
2018-09-26T00:22:31.926Z,3.10
2018-09-26T00:25:00.986Z,9.17
2018-09-26T00:27:30.091Z,1.37
2018-09-26T00:29:58.389Z,2.40
2018-09-26T00:32:26.709Z,3.03
2018-09-26T00:34:54.951Z,2.30
2018-09-26T00:37:23.207Z,5.80
2018-09-26T00:39:51.455Z,3.40
2018-09-26T00:42:19.753Z,3.43
2018-09-26T00:44:48.028Z,1.43
2018-09-26T00:47:16.261Z,0.70
2018-09-26T00:49:44.508Z,1.87
2018-09-26T00:52:12.863Z,3.30
2018-09-26T00:54:41.900Z,1.73
2018-09-26T00:57:10.921Z,2.27
2018-09-26T00:59:39.865Z,1.30
2018-09-26T01:02:08.975Z,3.93
2018-09-26T01:04:38.059Z,1.13
2018-09-26T01:07:07.208Z,3.30
2018-09-26T01:09:36.265Z,1.03
2018-09-26T01:12:05.657Z,3.53
2018-09-26T01:14:34.686Z,4.93
2018-09-26T01:17:03.563Z,3.70
2018-09-26T01:19:32.578Z,1.23
2018-09-26T01:22:01.225Z,1.20
2018-09-26T01:24:30.121Z,0.80
2018-09-26T01:26:59.151Z,2.00
2018-09-26T01:29:28.538Z,7.27
2018-09-26T01:31:57.551Z,1.83
2018-09-26T01:34:26.691Z,1.57
2018-09-26T01:36:54.961Z,5.33
2018-09-26T01:39:23.232Z,2.57
2018-09-26T01:41:51.472Z,0.80
2018-09-26T01:44:19.743Z,1.10
2018-09-26T01:46:48.020Z,1.00
2018-09-26T01:49:16.584Z,3.20
2018-09-26T01:51:44.812Z,2.17
2018-09-26T01:54:13.075Z,1.23
2018-09-26T01:56:41.281Z,4.73
2018-09-26T01:59:09.803Z,5.57
2018-09-26T02:01:38.207Z,0.83
2018-09-26T02:04:06.479Z,2.10
2018-09-26T02:06:34.716Z,1.70
2018-09-26T02:09:03.040Z,5.53
2018-09-26T02:11:31.263Z,2.10
2018-09-26T02:13:59.508Z,1.10
2018-09-26T02:16:27.728Z,1.17
2018-09-26T02:18:55.975Z,1.33
2018-09-26T02:21:24.213Z,1.20
2018-09-26T02:23:52.474Z,0.80
2018-09-26T02:26:20.711Z,9.80
2018-09-26T02:28:48.948Z,1.13
2018-09-26T02:31:17.163Z,1.67
2018-09-26T02:33:45.439Z,2.67
2018-09-26T02:36:13.728Z,1.00
2018-09-26T02:38:41.961Z,4.93
2018-09-26T02:41:10.186Z,2.43
2018-09-26T02:43:38.423Z,1.40
2018-09-26T02:46:06.684Z,2.00
2018-09-26T02:48:40.267Z,13.53
2018-09-26T02:51:08.505Z,3.23
2018-09-26T02:53:36.732Z,3.53
2018-09-26T02:56:04.975Z,2.60
2018-09-26T02:58:33.200Z,2.80
2018-09-26T03:01:01.433Z,2.37
2018-09-26T03:03:29.648Z,1.00
2018-09-26T03:05:57.909Z,1.00
2018-09-26T03:08:26.148Z,1.03
2018-09-26T03:10:54.658Z,3.23
2018-09-26T03:13:22.834Z,1.17
2018-09-26T03:15:51.180Z,6.13
2018-09-26T03:18:19.408Z,1.20
2018-09-26T03:20:47.632Z,2.67
2018-09-26T03:23:15.892Z,1.27
2018-09-26T03:25:44.131Z,1.03
2018-09-26T03:28:12.389Z,1.33
2018-09-26T03:30:40.609Z,0.50
2018-09-26T03:33:08.841Z,1.90
2018-09-26T03:35:37.056Z,4.53
2018-09-26T03:38:05.280Z,3.60
2018-09-26T03:40:33.509Z,1.00
2018-09-26T03:43:01.796Z,2.80
2018-09-26T03:45:30.093Z,1.17
2018-09-26T03:47:58.431Z,0.87
2018-09-26T03:50:26.738Z,2.80
2018-09-26T03:52:55.103Z,1.43
2018-09-26T03:55:23.343Z,2.57
2018-09-26T03:57:51.605Z,4.73
2018-09-26T04:00:19.857Z,1.10
2018-09-26T04:02:48.080Z,4.17
2018-09-26T04:05:16.814Z,1.87
2018-09-26T04:07:45.096Z,1.43
2018-09-26T04:10:13.420Z,11.60
2018-09-26T04:12:41.777Z,2.13
2018-09-26T04:15:09.872Z,0.87
2018-09-26T04:17:38.095Z,3.70
2018-09-26T04:20:06.535Z,5.83
2018-09-26T04:22:34.826Z,2.57
2018-09-26T04:25:03.083Z,2.63
2018-09-26T04:27:31.829Z,2.50
2018-09-26T04:29:59.925Z,5.70
2018-09-26T04:32:28.216Z,2.20
2018-09-26T04:34:56.564Z,5.07
2018-09-26T04:37:24.787Z,7.30
2018-09-26T04:39:52.998Z,4.47
2018-09-26T04:42:21.336Z,3.90
2018-09-26T04:44:49.566Z,3.80
2018-09-26T04:47:17.827Z,4.40
2018-09-26T04:49:46.047Z,1.53
2018-09-26T04:52:14.311Z,2.30
2018-09-26T04:54:42.516Z,2.23
2018-09-26T04:57:10.887Z,1.30
2018-09-26T04:59:39.108Z,4.07
2018-09-26T05:02:07.322Z,2.07
2018-09-26T05:04:35.577Z,1.60
2018-09-26T05:07:03.798Z,1.80
2018-09-26T05:09:32.054Z,2.03
2018-09-26T05:12:00.315Z,1.50
2018-09-26T05:14:28.563Z,1.80
2018-09-26T05:16:57.053Z,2.60
2018-09-26T05:19:25.280Z,2.07
2018-09-26T05:21:53.494Z,1.53
2018-09-26T05:24:21.713Z,2.63
2018-09-26T05:26:49.929Z,5.10
2018-09-26T05:29:18.157Z,4.20
2018-09-26T05:31:46.360Z,1.80
2018-09-26T05:34:14.589Z,4.03
2018-09-26T05:36:42.809Z,2.57
2018-09-26T05:39:12.206Z,1.10
2018-09-26T05:41:40.551Z,1.97
2018-09-26T05:44:08.967Z,2.00
2018-09-26T05:46:37.224Z,2.93
2018-09-26T05:49:05.423Z,2.43
2018-09-26T05:51:33.670Z,2.30
2018-09-26T05:54:01.863Z,5.67
2018-09-26T05:56:30.074Z,3.00
2018-09-26T05:58:58.709Z,2.93
2018-09-26T06:01:27.040Z,1.57
2018-09-26T06:03:55.322Z,2.10
2018-09-26T06:06:23.554Z,5.80
2018-09-26T06:08:51.759Z,3.33
2018-09-26T06:11:19.991Z,4.20
2018-09-26T06:13:48.229Z,6.63
2018-09-26T06:16:16.451Z,4.13
2018-09-26T06:18:44.646Z,3.97
2018-09-26T06:21:12.999Z,4.50
2018-09-26T06:23:41.227Z,6.57
2018-09-26T06:26:09.428Z,5.90
2018-09-26T06:28:38.736Z,7.30
2018-09-26T06:31:07.031Z,7.80
2018-09-26T06:33:35.302Z,7.63
2018-09-26T06:36:03.595Z,13.97
2018-09-26T06:38:31.843Z,22.53
2018-09-26T06:41:00.334Z,33.37
2018-09-26T06:43:28.587Z,83.53
2018-09-26T06:45:56.835Z,146.90
2018-09-26T06:48:26.216Z,163.50
2018-09-26T06:50:54.479Z,163.23
2018-09-26T06:53:22.741Z,107.60
2018-09-26T06:55:51.001Z,36.97
2018-09-26T06:58:19.192Z,12.37
2018-09-26T07:00:47.410Z,11.03
2018-09-26T07:03:15.632Z,5.17
2018-09-26T07:05:43.844Z,3.53
2018-09-26T07:08:12.088Z,3.97
2018-09-26T07:10:40.513Z,2.40
2018-09-26T07:13:08.743Z,2.73
2018-09-26T07:15:36.963Z,3.37
2018-09-26T07:18:05.180Z,5.70
2018-09-26T07:20:33.419Z,5.93
2018-09-26T07:23:01.939Z,3.60
2018-09-26T07:25:30.143Z,4.97
2018-09-26T07:27:58.360Z,4.40
2018-09-26T07:30:26.567Z,3.40
2018-09-26T07:32:54.876Z,4.60
2018-09-26T07:35:23.100Z,8.27
2018-09-26T07:37:51.319Z,8.43
2018-09-26T07:40:19.540Z,4.60
2018-09-26T07:42:47.768Z,2.97
2018-09-26T07:45:15.995Z,2.27
2018-09-26T07:47:44.236Z,2.93
2018-09-26T07:50:12.476Z,3.87
2018-09-26T07:52:40.681Z,3.60
2018-09-26T07:55:08.906Z,5.13
2018-09-26T07:57:37.182Z,1.93
2018-09-26T08:00:06.442Z,3.00
2018-09-26T08:02:34.645Z,2.87
2018-09-26T08:05:03.601Z,2.20
2018-09-26T08:07:31.819Z,4.00
2018-09-26T08:10:00.055Z,1.77
2018-09-26T08:12:28.370Z,2.60
2018-09-26T08:14:56.651Z,3.13
2018-09-26T08:17:24.881Z,2.07
2018-09-26T08:19:53.087Z,2.80
2018-09-26T08:22:21.333Z,2.73
2018-09-26T08:24:49.551Z,5.50
2018-09-26T08:27:17.779Z,1.80
2018-09-26T08:29:46.010Z,10.60
2018-09-26T08:32:14.415Z,3.77
2018-09-26T08:34:42.634Z,2.40
2018-09-26T08:37:10.868Z,1.40
2018-09-26T08:39:39.075Z,7.27
2018-09-26T08:42:07.840Z,4.30
2018-09-26T08:44:36.191Z,1.40
2018-09-26T08:47:04.745Z,1.50
2018-09-26T08:49:32.972Z,2.50
2018-09-26T08:52:01.213Z,2.53
2018-09-26T08:54:29.445Z,1.93
2018-09-26T08:56:57.751Z,3.03
2018-09-26T08:59:26.091Z,1.43
2018-09-26T09:01:54.341Z,2.80
2018-09-26T09:04:22.593Z,2.40
2018-09-26T09:06:50.809Z,2.00
2018-09-26T09:09:19.087Z,4.00
2018-09-26T09:11:47.382Z,4.73
2018-09-26T09:14:15.615Z,2.17
2018-09-26T09:16:43.807Z,1.83
2018-09-26T09:19:12.052Z,2.60
2018-09-26T09:21:40.267Z,3.23
2018-09-26T09:24:08.472Z,2.87
2018-09-26T09:26:36.716Z,2.30
2018-09-26T09:29:05.171Z,1.83
2018-09-26T09:31:33.484Z,1.57
2018-09-26T09:34:01.702Z,2.10
2018-09-26T09:36:29.933Z,3.63
2018-09-26T09:38:58.180Z,3.63
2018-09-26T09:41:26.396Z,3.37
2018-09-26T09:43:56.054Z,3.80
2018-09-26T09:46:24.320Z,4.50
2018-09-26T09:48:52.539Z,3.87
2018-09-26T09:51:20.786Z,1.93
2018-09-26T09:53:49.017Z,6.77
2018-09-26T09:56:17.356Z,4.60
2018-09-26T09:58:45.545Z,1.97
2018-09-26T10:01:19.037Z,1.67
2018-09-26T10:03:47.355Z,0.80
2018-09-26T10:06:15.515Z,1.63
2018-09-26T10:08:43.786Z,3.70
2018-09-26T10:11:13.214Z,3.13
2018-09-26T10:13:43.066Z,3.33
2018-09-26T10:16:11.347Z,3.17
2018-09-26T10:18:39.643Z,3.47
2018-09-26T10:21:11.775Z,5.17
2018-09-26T10:23:41.320Z,1.73
2018-09-26T10:26:09.820Z,1.80
2018-09-26T10:28:38.052Z,4.10
2018-09-26T10:31:09.045Z,6.97
2018-09-26T10:33:38.793Z,3.33
2018-09-26T10:36:08.714Z,6.07
2018-09-26T10:38:38.752Z,2.60
2018-09-26T10:41:10.843Z,2.33
2018-09-26T10:43:40.519Z,2.23
2018-09-26T10:46:10.117Z,5.27
2018-09-26T10:48:38.354Z,2.00
2018-09-26T10:51:08.517Z,3.43
2018-09-26T10:53:39.109Z,4.00
2018-09-26T10:56:07.625Z,4.10
2018-09-26T10:58:36.922Z,2.83
2018-09-26T11:01:05.282Z,3.17
2018-09-26T11:03:33.572Z,7.13
2018-09-26T11:06:01.835Z,1.60
2018-09-26T11:08:30.099Z,3.17
2018-09-26T11:10:58.428Z,1.27
2018-09-26T11:13:26.706Z,1.77
2018-09-26T11:15:54.962Z,5.40
2018-09-26T11:18:23.184Z,4.10
2018-09-26T11:20:51.456Z,2.13
2018-09-26T11:23:19.674Z,5.83
2018-09-26T11:25:56.637Z,2.80
2018-09-26T11:28:25.315Z,2.80
2018-09-26T11:30:53.511Z,4.10
2018-09-26T11:33:21.802Z,4.90
2018-09-26T11:35:49.986Z,4.23
2018-09-26T11:38:19.922Z,2.37
2018-09-26T11:40:48.116Z,4.80
2018-09-26T11:43:16.342Z,2.73
2018-09-26T11:45:44.580Z,2.87
2018-09-26T11:48:12.791Z,1.53
2018-09-26T11:50:41.037Z,1.33
2018-09-26T11:53:09.449Z,3.30
2018-09-26T11:55:37.659Z,4.43
2018-09-26T11:58:05.911Z,1.67
2018-09-26T12:00:34.391Z,3.17
2018-09-26T12:03:02.620Z,3.90
2018-09-26T12:05:31.182Z,2.40
2018-09-26T12:07:59.480Z,1.43
2018-09-26T12:10:28.578Z,1.80
2018-09-26T12:12:57.713Z,1.20
2018-09-26T12:15:26.810Z,1.63
2018-09-26T12:17:55.776Z,2.90
2018-09-26T12:20:24.076Z,2.60
2018-09-26T12:22:52.902Z,1.37
2018-09-26T12:25:22.091Z,1.80
2018-09-26T12:27:51.148Z,1.80
2018-09-26T12:30:20.157Z,3.33
2018-09-26T12:32:49.264Z,1.57
2018-09-26T12:35:18.299Z,2.70
2018-09-26T12:37:47.265Z,3.13
2018-09-26T12:40:16.536Z,6.43
2018-09-26T12:42:45.701Z,4.53
2018-09-26T12:45:14.873Z,8.03
2018-09-26T12:47:43.943Z,3.97
2018-09-26T12:50:13.083Z,2.30
2018-09-26T12:52:42.060Z,1.10
2018-09-26T12:55:11.294Z,1.10
2018-09-26T12:57:40.397Z,2.00
2018-09-26T13:00:09.539Z,1.67
2018-09-26T13:02:38.661Z,2.47
2018-09-26T13:05:07.757Z,6.03
2018-09-26T13:07:36.854Z,2.43
2018-09-26T13:10:05.960Z,3.37
2018-09-26T13:12:34.251Z,2.20
2018-09-26T13:15:02.502Z,4.87
2018-09-26T13:17:30.799Z,2.00
2018-09-26T13:19:59.186Z,1.23
2018-09-26T13:22:27.547Z,1.17
2018-09-26T13:24:57.796Z,1.03
2018-09-26T13:27:26.100Z,1.93
2018-09-26T13:29:54.349Z,1.10
2018-09-26T13:32:22.679Z,2.97
2018-09-26T13:34:50.927Z,2.27
2018-09-26T13:37:19.403Z,3.03
2018-09-26T13:39:47.615Z,12.13
2018-09-26T13:42:15.868Z,1.20
2018-09-26T13:44:44.127Z,1.90
2018-09-26T13:47:12.462Z,1.73
2018-09-26T13:49:40.680Z,2.60
2018-09-26T13:52:08.981Z,15.93
2018-09-26T13:54:37.273Z,3.77
2018-09-26T13:57:05.408Z,1.37
2018-09-26T13:59:33.639Z,5.13
2018-09-26T14:02:01.918Z,1.60
2018-09-26T14:04:30.167Z,4.53
2018-09-26T14:06:58.400Z,3.37
2018-09-26T14:09:26.628Z,5.30
2018-09-26T14:11:54.884Z,2.83
2018-09-26T14:14:23.218Z,2.90
2018-09-26T14:16:51.504Z,2.40
2018-09-26T14:19:19.724Z,2.50
2018-09-26T14:21:48.031Z,3.10
2018-09-26T14:24:16.723Z,3.00
2018-09-26T14:26:45.044Z,7.10
2018-09-26T14:29:13.483Z,1.40
2018-09-26T14:31:41.777Z,5.27
2018-09-26T14:34:10.029Z,1.73
2018-09-26T14:36:38.357Z,2.00
2018-09-26T14:39:07.698Z,2.93
2018-09-26T14:41:36.089Z,2.00
2018-09-26T14:44:04.445Z,1.20
2018-09-26T14:46:32.755Z,6.47
2018-09-26T14:49:01.025Z,3.53
2018-09-26T14:51:29.378Z,3.53
2018-09-26T14:53:57.745Z,4.10
2018-09-26T14:56:26.038Z,1.17
2018-09-26T14:58:54.308Z,2.20
2018-09-26T15:01:22.591Z,2.00
2018-09-26T15:03:50.867Z,4.27
2018-09-26T15:06:19.183Z,1.07
2018-09-26T15:08:47.470Z,2.40
2018-09-26T15:11:16.184Z,1.70
2018-09-26T15:13:44.498Z,3.13
2018-09-26T15:16:12.840Z,3.00
2018-09-26T15:18:41.087Z,2.53
2018-09-26T15:21:09.388Z,1.33
2018-09-26T15:23:37.750Z,4.73
2018-09-26T15:26:06.045Z,1.50
2018-09-26T15:28:34.366Z,1.53
2018-09-26T15:31:02.666Z,1.73
2018-09-26T15:33:31.084Z,5.47
2018-09-26T15:35:59.473Z,2.07
2018-09-26T15:38:27.753Z,6.50
2018-09-26T15:40:56.034Z,2.83
2018-09-26T15:43:24.327Z,1.83
2018-09-26T15:45:52.697Z,1.10
2018-09-26T15:48:21.067Z,2.17
2018-09-26T15:50:49.339Z,3.93
2018-09-26T15:53:17.821Z,2.20
2018-09-26T15:55:46.095Z,1.77
2018-09-26T15:58:14.426Z,4.63
2018-09-26T16:00:42.747Z,0.80
2018-09-26T16:03:11.004Z,3.67
2018-09-26T16:05:39.294Z,1.93
2018-09-26T16:08:07.555Z,3.77
2018-09-26T16:10:35.813Z,1.70
2018-09-26T16:13:04.080Z,3.07
2018-09-26T16:15:32.337Z,7.20
2018-09-26T16:18:00.587Z,2.87
2018-09-26T16:20:28.829Z,1.17
2018-09-26T16:22:57.066Z,0.83
2018-09-26T16:25:25.366Z,3.67
2018-09-26T16:27:53.566Z,1.07
2018-09-26T16:30:21.871Z,1.00
2018-09-26T16:32:50.037Z,2.50
2018-09-26T16:35:18.432Z,1.40
2018-09-26T16:37:46.692Z,3.40
2018-09-26T16:40:14.954Z,2.80
2018-09-26T16:42:43.139Z,2.57
2018-09-26T16:45:11.361Z,1.50
2018-09-26T16:47:40.432Z,1.20
2018-09-26T16:50:08.762Z,4.03
2018-09-26T16:52:36.967Z,2.20
2018-09-26T16:55:05.191Z,3.83
2018-09-26T16:57:33.430Z,2.50
2018-09-26T17:00:01.685Z,1.80
2018-09-26T17:02:29.916Z,4.93
2018-09-26T17:04:58.138Z,1.70
2018-09-26T17:07:26.364Z,1.07
2018-09-26T17:09:54.592Z,3.17
2018-09-26T17:12:22.868Z,2.17
2018-09-26T17:14:51.072Z,1.13
2018-09-26T17:17:19.464Z,2.23
2018-09-26T17:19:47.692Z,1.73
2018-09-26T17:22:15.954Z,3.13
2018-09-26T17:24:44.237Z,4.60
2018-09-26T17:27:12.484Z,8.90
2018-09-26T17:29:40.729Z,1.00
2018-09-26T17:32:09.006Z,2.87
2018-09-26T17:34:37.310Z,1.50
2018-09-26T17:37:05.739Z,2.40
2018-09-26T17:39:33.964Z,1.90
2018-09-26T17:42:02.193Z,2.60
2018-09-26T17:44:30.438Z,1.73
2018-09-26T17:46:58.675Z,1.17
2018-09-26T17:49:26.968Z,1.80
2018-09-26T17:51:55.188Z,1.50
2018-09-26T17:54:23.597Z,1.27
2018-09-26T17:56:51.768Z,1.40
2018-09-26T17:59:20.235Z,5.10
2018-09-26T18:01:48.472Z,0.80
2018-09-26T18:04:16.711Z,2.70
2018-09-26T18:06:44.938Z,1.40
2018-09-26T18:09:13.633Z,2.30
2018-09-26T18:14:32.660Z,1.23
2018-09-26T18:17:00.961Z,1.73
2018-09-26T18:19:29.391Z,2.60
2018-09-26T18:21:58.176Z,2.10
2018-09-26T18:24:26.692Z,4.40
2018-09-26T18:26:55.621Z,4.93
2018-09-26T18:29:24.294Z,4.30
2018-09-26T18:34:46.441Z,1.10
2018-09-26T18:37:15.111Z,1.90
2018-09-26T18:39:44.339Z,3.93
2018-09-26T18:42:13.975Z,2.73
2018-09-26T18:44:42.778Z,4.53
2018-09-26T18:47:11.084Z,2.07
2018-09-26T18:49:39.971Z,3.37
2018-09-26T18:52:11.334Z,1.70
2018-09-26T18:54:41.545Z,2.10
2018-09-26T18:57:11.437Z,1.33
2018-09-26T18:59:42.337Z,3.33
2018-09-26T19:02:10.697Z,1.77
2018-09-26T19:04:39.075Z,1.77
2018-09-26T19:07:07.547Z,1.70
2018-09-26T19:09:36.395Z,7.60
2018-09-26T19:12:05.904Z,2.17
2018-09-26T19:14:34.458Z,2.70
2018-09-26T19:17:03.274Z,1.87
2018-09-26T19:19:31.792Z,1.70
2018-09-26T19:22:00.642Z,2.90
2018-09-26T19:24:28.951Z,1.50
2018-09-26T19:26:57.358Z,2.60
2018-09-26T19:29:26.060Z,2.07
2018-09-26T19:31:55.393Z,1.23
2018-09-26T19:34:23.972Z,3.10
2018-09-26T19:36:52.749Z,1.30
2018-09-26T19:39:21.581Z,1.60
2018-09-26T19:41:50.135Z,1.97
2018-09-26T19:44:29.068Z,2.60
2018-09-26T19:46:57.667Z,1.37
2018-09-26T19:49:27.035Z,2.13
2018-09-26T19:51:56.191Z,2.17
2018-09-26T19:54:24.860Z,1.60
2018-09-26T19:56:53.159Z,2.97
2018-09-26T19:59:21.413Z,2.03
2018-09-26T20:01:49.657Z,1.60
2018-09-26T20:04:17.965Z,1.13
2018-09-26T20:06:46.185Z,1.20
2018-09-26T20:09:14.422Z,5.27
2018-09-26T20:11:43.095Z,1.90
2018-09-26T20:14:11.431Z,5.50
2018-09-26T20:16:39.830Z,4.90
2018-09-26T20:19:08.266Z,12.33
2018-09-26T20:21:36.477Z,4.77
2018-09-26T20:24:04.758Z,1.70
2018-09-26T20:26:32.977Z,1.47
2018-09-26T20:29:01.262Z,3.17
2018-09-26T20:31:29.435Z,4.10
2018-09-26T20:33:57.669Z,3.90
2018-09-26T20:36:25.994Z,1.80
2018-09-26T20:38:54.233Z,1.80
2018-09-26T20:41:22.465Z,7.73
2018-09-26T20:43:50.680Z,11.40
2018-09-26T20:46:18.908Z,4.13
2018-09-26T20:48:47.175Z,2.00
2018-09-26T20:51:15.546Z,2.20
2018-09-26T20:53:43.865Z,2.80
2018-09-26T20:56:12.129Z,2.70
2018-09-26T20:58:40.388Z,2.70
2018-09-26T21:01:08.692Z,4.87
2018-09-26T21:03:36.959Z,5.60
2018-09-26T21:06:05.276Z,4.97
2018-09-26T21:08:33.536Z,5.40
2018-09-26T21:11:01.847Z,4.03
2018-09-26T21:13:30.094Z,7.87
2018-09-26T21:15:58.373Z,11.43
2018-09-26T21:18:26.662Z,20.60
2018-09-26T21:20:54.928Z,23.50
2018-09-26T21:23:23.251Z,67.57
2018-09-26T21:25:51.641Z,39.70
2018-09-26T21:28:19.877Z,25.47
2018-09-26T21:30:48.169Z,65.07
2018-09-26T21:33:16.412Z,102.00
2018-09-26T21:35:44.689Z,85.60
2018-09-26T21:38:12.941Z,174.17
2018-09-26T21:40:41.331Z,203.47
2018-09-26T21:43:09.593Z,200.50
2018-09-26T21:45:37.868Z,202.80
2018-09-26T21:48:06.126Z,206.63
2018-09-26T21:50:34.373Z,210.10
2018-09-26T21:53:02.636Z,188.57
2018-09-26T21:55:31.114Z,207.60
2018-09-26T21:57:59.373Z,196.87
2018-09-26T22:00:28.365Z,201.73
2018-09-26T22:02:56.677Z,200.07
2018-09-26T22:05:24.937Z,191.47
2018-09-26T22:07:53.182Z,194.50
2018-09-26T22:10:21.556Z,192.83
2018-09-26T22:12:49.856Z,192.77
2018-09-26T22:15:21.665Z,184.73
2018-09-26T22:17:49.979Z,185.60
2018-09-26T22:20:18.849Z,175.30
2018-09-26T22:22:47.489Z,181.20
2018-09-26T22:25:16.000Z,174.93
2018-09-26T22:27:44.285Z,178.70
2018-09-26T22:30:12.521Z,178.33
2018-09-26T22:32:40.826Z,178.80
2018-09-26T22:35:09.064Z,175.50
2018-09-26T22:37:37.693Z,165.53
2018-09-26T22:40:05.993Z,170.47
2018-09-26T22:42:34.289Z,167.80
2018-09-26T22:45:02.540Z,167.57
2018-09-26T22:47:31.001Z,163.83
2018-09-26T22:49:59.243Z,166.90
2018-09-26T22:52:27.504Z,168.40
2018-09-26T22:54:55.766Z,167.63
2018-09-26T22:57:24.033Z,164.47
2018-09-26T22:59:52.313Z,163.90
2018-09-26T23:02:20.690Z,162.33
2018-09-26T23:04:48.984Z,159.00
2018-09-26T23:07:17.268Z,152.20
2018-09-26T23:09:45.504Z,148.37
2018-09-26T23:12:13.694Z,148.07
2018-09-26T23:14:41.891Z,144.97
2018-09-26T23:17:14.455Z,149.07
2018-09-26T23:19:42.642Z,145.47
2018-09-26T23:22:10.829Z,145.73
2018-09-26T23:24:39.057Z,144.27
2018-09-26T23:27:07.259Z,143.40
2018-09-26T23:29:35.665Z,141.53
2018-09-26T23:32:03.871Z,135.90
2018-09-26T23:34:32.047Z,138.80
2018-09-26T23:37:00.247Z,135.80
2018-09-26T23:39:28.447Z,137.77
2018-09-26T23:41:56.632Z,141.60
2018-09-26T23:44:24.845Z,138.67
2018-09-26T23:46:53.044Z,138.43
2018-09-26T23:49:21.228Z,142.57
2018-09-26T23:51:49.426Z,147.50
2018-09-26T23:54:17.958Z,145.03
2018-09-26T23:56:46.175Z,143.80
2018-09-26T23:59:14.347Z,147.67
